Time;durP1;ratioP1;P1;durP2;ratioP2;P2;SDS_P1;SDS_P2;PMS_P1;PMS_P2;Temp;Humidity;BMP_temperature;BMP_pressure;BME280_temperature;BME280_humidity;BME280_pressure;Samples;Min_cycle;Max_cycle;Signal;HPM_P1;HPM_P2
2022/04/22 00:00:25;;;;;;;4.18;1.70;;;20.50;41.40;19.50;100713.00;;;;5046862;28;20071;-69
2022/04/22 00:03:11;;;;;;;3.38;1.83;;;20.50;41.50;19.50;100711.00;;;;5041097;28;20181;-69
2022/04/22 00:05:57;;;;;;;2.45;1.90;;;20.40;41.50;19.50;100697.00;;;;5038433;28;20088;-69
2022/04/22 00:08:43;;;;;;;4.15;2.00;;;20.50;41.50;19.50;100702.00;;;;5040316;28;20075;-69
2022/04/22 00:11:29;;;;;;;3.67;1.95;;;20.50;41.50;19.50;100701.00;;;;5028096;28;20357;-69
2022/04/22 00:14:15;;;;;;;2.22;1.70;;;20.40;41.60;19.50;100702.00;;;;5054003;28;20554;-69
2022/04/22 00:17:01;;;;;;;2.35;1.60;;;20.40;41.60;19.50;100699.00;;;;5030497;28;20051;-69
2022/04/22 00:19:47;;;;;;;2.70;2.00;;;20.50;41.60;19.50;100688.00;;;;5031611;28;20041;-69
2022/04/22 00:22:37;;;;;;;2.50;1.85;;;20.50;41.70;19.50;100699.00;;;;5044804;28;20048;-69
2022/04/22 00:25:23;;;;;;;2.42;1.80;;;20.40;41.80;19.50;100696.00;;;;5033984;28;20082;-69
2022/04/22 00:28:09;;;;;;;2.65;1.75;;;20.40;41.80;19.50;100693.00;;;;5050079;28;20359;-69
2022/04/22 00:30:55;;;;;;;2.75;2.00;;;20.50;41.90;19.50;100692.00;;;;5038457;28;20037;-69
2022/04/22 00:33:41;;;;;;;3.17;2.22;;;20.40;41.90;19.50;100692.00;;;;5040535;28;20091;-69
2022/04/22 00:36:28;;;;;;;3.03;2.15;;;20.40;42.00;19.50;100696.00;;;;5043283;28;20044;-69
2022/04/22 00:39:14;;;;;;;4.50;2.10;;;20.40;42.10;19.50;100680.00;;;;5043606;28;20044;-69
2022/04/22 00:42:08;;;;;;;3.30;1.92;;;20.40;42.10;19.50;100681.00;;;;5046516;28;20042;-68
2022/04/22 00:44:58;;;;;;;3.60;2.30;;;20.50;42.30;19.50;100695.00;;;;5036243;28;20135;-69
2022/04/22 00:47:44;;;;;;;3.80;2.20;;;20.40;42.20;19.50;100698.00;;;;5042921;28;20493;-69
2022/04/22 00:50:30;;;;;;;3.72;2.42;;;20.40;42.20;19.50;100683.00;;;;5044824;28;20048;-69
2022/04/22 00:53:16;;;;;;;3.03;2.22;;;20.40;42.40;19.50;100691.00;;;;5029418;28;20409;-69
2022/04/22 00:56:08;;;;;;;3.80;2.20;;;20.40;42.30;19.50;100686.00;;;;5029469;28;20048;-69
2022/04/22 00:58:56;;;;;;;3.15;2.35;;;20.50;42.40;19.50;100687.00;;;;5033198;28;20089;-69
2022/04/22 01:01:42;;;;;;;4.07;2.20;;;20.40;42.40;19.50;100671.00;;;;5012945;28;20655;-69
2022/04/22 01:10:44;;;;;;;4.82;2.33;;;20.30;42.50;19.50;100661.00;;;;5038726;28;20072;-69
2022/04/22 01:13:30;;;;;;;4.57;2.80;;;20.40;42.60;19.40;100655.00;;;;5035323;28;20102;-69
2022/04/22 01:16:16;;;;;;;4.05;2.67;;;20.40;42.70;19.40;100653.00;;;;5042306;28;20033;-69
2022/04/22 01:19:02;;;;;;;4.45;2.38;;;20.30;42.70;19.40;100659.00;;;;5043975;28;20037;-69
2022/04/22 01:21:48;;;;;;;4.18;2.25;;;20.40;42.80;19.40;100650.00;;;;5034063;28;20479;-69
2022/04/22 01:24:35;;;;;;;3.72;2.35;;;20.40;42.80;19.40;100655.00;;;;5028332;28;20095;-69
2022/04/22 01:27:22;;;;;;;4.43;2.97;;;20.40;42.80;19.40;100645.00;;;;5028602;28;20415;-69
2022/04/22 01:30:08;;;;;;;4.00;2.33;;;20.40;42.80;19.40;100652.00;;;;5009204;28;20045;-69
2022/04/22 01:32:56;;;;;;;3.70;2.15;;;20.30;42.80;19.40;100643.00;;;;5040440;28;20052;-69
2022/04/22 01:35:44;;;;;;;2.22;2.03;;;20.30;42.90;19.40;100637.00;;;;5024156;28;20041;-69
2022/04/22 01:38:30;;;;;;;;;;;20.40;42.90;19.40;100637.00;;;;5024219;28;20045;-69
2022/04/22 01:41:16;;;;;;;3.35;2.30;;;20.40;42.60;19.40;100635.00;;;;5034089;28;19960;-69
2022/04/22 01:44:03;;;;;;;4.10;2.15;;;20.40;42.80;19.40;100638.00;;;;5037543;28;20041;-68
2022/04/22 01:46:49;;;;;;;3.00;1.87;;;20.40;42.90;19.40;100637.00;;;;5036514;28;20065;-69
2022/04/22 01:49:35;;;;;;;5.40;2.45;;;20.30;42.90;19.40;100631.00;;;;5053253;28;20044;-69
2022/04/22 01:52:21;;;;;;;3.40;2.28;;;20.40;43.00;19.40;100629.00;;;;5029351;28;20045;-69
2022/04/22 01:55:08;;;;;;;5.75;2.35;;;20.30;43.00;19.40;100627.00;;;;5036901;28;20095;-69
2022/04/22 01:57:54;;;;;;;3.28;2.22;;;20.30;43.00;19.40;100628.00;;;;5039641;28;20041;-69
2022/04/22 02:00:40;;;;;;;4.65;2.85;;;20.30;43.00;19.40;100632.00;;;;5040708;28;20711;-69
2022/04/22 02:03:26;;;;;;;5.00;2.75;;;20.30;43.10;19.40;100637.00;;;;5048119;28;20051;-69
2022/04/22 02:06:12;;;;;;;3.53;2.50;;;20.30;43.10;19.40;100629.00;;;;5042864;28;20080;-69
2022/04/22 02:08:58;;;;;;;4.00;2.22;;;20.30;43.20;19.40;100626.00;;;;5044268;28;20496;-69
2022/04/22 02:11:44;;;;;;;4.97;2.60;;;20.30;43.20;19.40;100626.00;;;;5031760;28;20092;-69
2022/04/22 02:14:30;;;;;;;3.47;2.13;;;20.30;43.20;19.40;100624.00;;;;5048498;28;20363;-69
2022/04/22 02:17:18;;;;;;;3.20;2.38;;;20.30;43.20;19.40;100619.00;;;;5030592;28;20437;-69
2022/04/22 02:20:07;;;;;;;4.03;2.53;;;20.30;43.20;19.40;100622.00;;;;5039020;28;20041;-69
2022/04/22 02:22:53;;;;;;;3.15;2.20;;;20.30;43.30;19.40;100612.00;;;;5051058;28;20414;-69
2022/04/22 02:25:39;;;;;;;3.80;2.38;;;20.30;43.20;19.40;100619.00;;;;5030531;28;20041;-69
2022/04/22 02:28:32;;;;;;;4.72;2.70;;;20.30;43.30;19.40;100614.00;;;;5040650;28;20112;-69
2022/04/22 02:31:18;;;;;;;4.15;2.92;;;20.30;43.30;19.40;100613.00;;;;5039373;28;20089;-69
2022/04/22 02:34:04;;;;;;;3.13;2.28;;;20.30;43.30;19.40;100604.00;;;;5039245;28;20128;-69
2022/04/22 02:36:50;;;;;;;3.38;2.30;;;20.30;43.30;19.40;100606.00;;;;5038478;28;20196;-69
2022/04/22 02:39:37;;;;;;;4.43;2.88;;;20.30;43.30;19.40;100605.00;;;;5015925;28;20049;-69
2022/04/22 02:45:28;;;;;;;3.38;2.60;;;20.30;43.40;19.40;100601.00;;;;5037322;28;20048;-69
2022/04/22 02:48:14;;;;;;;4.80;2.80;;;20.20;43.40;19.40;100596.00;;;;5040143;28;20052;-69
2022/04/22 02:51:00;;;;;;;3.50;2.78;;;20.30;43.40;19.40;100604.00;;;;5035917;28;20422;-69
2022/04/22 02:53:46;;;;;;;2.83;2.55;;;20.20;43.40;19.40;100602.00;;;;5036473;28;20049;-69
2022/04/22 02:56:32;;;;;;;3.85;2.80;;;20.20;43.40;19.40;100605.00;;;;5036952;28;20049;-69
2022/04/22 02:59:18;;;;;;;3.10;2.78;;;20.20;43.40;19.40;100603.00;;;;5022955;28;20032;-69
2022/04/22 03:02:05;;;;;;;3.95;2.65;;;20.20;43.50;19.40;100601.00;;;;5029775;28;20049;-69
2022/04/22 03:04:51;;;;;;;4.20;2.67;;;20.20;43.40;19.40;100595.00;;;;5026070;28;20046;-69
2022/04/22 03:07:38;;;;;;;5.90;2.90;;;20.20;43.50;19.40;100598.00;;;;5025368;28;20044;-69
2022/04/22 03:10:24;;;;;;;3.30;2.65;;;20.20;43.50;19.40;100603.00;;;;5021216;28;20099;-69
2022/04/22 03:13:10;;;;;;;3.38;2.70;;;20.20;43.50;19.30;100591.00;;;;5034055;28;20045;-69
2022/04/22 03:15:58;;;;;;;4.97;2.47;;;20.20;43.50;19.30;100600.00;;;;5032876;28;20344;-69
2022/04/22 03:18:44;;;;;;;4.82;3.15;;;20.20;43.50;19.30;100600.00;;;;5033091;28;20107;-69
2022/04/22 03:21:30;;;;;;;5.53;3.53;;;20.10;43.50;19.30;100600.00;;;;5035232;28;20049;-69
2022/04/22 03:24:16;;;;;;;3.90;2.83;;;20.20;43.60;19.30;100603.00;;;;5035676;28;20041;-69
2022/04/22 03:27:03;;;;;;;3.72;2.90;;;20.20;43.60;19.30;100596.00;;;;5033145;28;20273;-69
2022/04/22 03:29:49;;;;;;;4.25;2.88;;;20.20;43.60;19.30;100586.00;;;;5033289;28;20042;-69
2022/04/22 03:32:35;;;;;;;3.40;2.88;;;20.20;43.50;19.30;100594.00;;;;5041554;28;20131;-69
2022/04/22 03:35:21;;;;;;;3.58;3.08;;;20.20;43.70;19.30;100587.00;;;;5038795;28;20056;-69
2022/04/22 03:38:08;;;;;;;4.10;2.90;;;20.20;43.70;19.30;100593.00;;;;5036899;28;20053;-69
2022/04/22 03:40:54;;;;;;;4.17;2.80;;;20.20;43.70;19.30;100589.00;;;;5031545;28;20073;-69
2022/04/22 03:43:40;;;;;;;3.83;3.03;;;20.20;43.60;19.30;100589.00;;;;5028689;28;20079;-69
2022/04/22 03:46:26;;;;;;;3.33;3.03;;;20.20;43.70;19.30;100583.00;;;;5042124;28;20033;-69
2022/04/22 03:49:12;;;;;;;3.28;2.85;;;20.20;43.70;19.30;100590.00;;;;5040413;28;20494;-69
2022/04/22 03:51:58;;;;;;;4.13;3.20;;;20.20;43.70;19.30;100587.00;;;;5034116;28;20041;-69
2022/04/22 03:54:44;;;;;;;3.13;2.55;;;20.20;43.80;19.30;100578.00;;;;5035913;28;20045;-69
2022/04/22 04:00:36;;;;;;;3.47;2.83;;;20.20;43.80;19.30;100581.00;;;;5031332;28;20505;-69
2022/04/22 04:03:26;;;;;;;4.65;3.03;;;20.20;43.70;19.30;100574.00;;;;5034564;28;20159;-69
2022/04/22 04:06:12;;;;;;;3.88;3.13;;;20.10;43.70;19.30;100574.00;;;;5033413;28;20041;-69
2022/04/22 04:18:12;;;;;;;4.20;3.15;;;20.10;43.80;19.30;100567.00;;;;5038123;28;20045;-69
2022/04/22 04:24:05;;;;;;;4.82;3.97;;;20.10;43.80;19.20;100576.00;;;;5041956;28;20491;-69
2022/04/22 04:26:52;;;;;;;4.77;3.47;;;20.10;43.80;19.20;100578.00;;;;5038434;28;20562;-69
2022/04/22 04:29:39;;;;;;;5.22;3.95;;;20.10;43.80;19.30;100573.00;;;;5027109;28;20048;-69
2022/04/22 04:32:25;;;;;;;4.30;3.67;;;20.20;43.90;19.30;100569.00;;;;5037476;28;20048;-69
2022/04/22 04:35:11;;;;;;;4.07;3.60;;;20.10;43.90;19.20;100569.00;;;;5047591;28;20135;-69
2022/04/22 04:37:57;;;;;;;4.80;4.10;;;20.10;43.90;19.30;100576.00;;;;5038735;28;20055;-69
2022/04/22 04:40:46;;;;;;;5.45;4.07;;;20.10;43.80;19.20;100564.00;;;;5043238;28;20401;-69
2022/04/22 04:43:32;;;;;;;4.45;3.90;;;20.20;44.00;19.20;100570.00;;;;5046270;28;20048;-69
2022/04/22 04:46:18;;;;;;;4.68;3.78;;;20.10;43.90;19.20;100577.00;;;;5040804;28;20044;-69
2022/04/22 04:49:05;;;;;;;4.63;3.47;;;20.10;43.80;19.20;100577.00;;;;5028448;28;20090;-68
2022/04/22 04:51:51;;;;;;;4.80;4.13;;;20.10;43.90;19.20;100570.00;;;;5040702;28;20038;-69
2022/04/22 04:54:37;;;;;;;5.18;3.75;;;20.10;43.90;19.20;100568.00;;;;5041600;28;20111;-68
2022/04/22 04:57:24;;;;;;;6.53;4.28;;;20.10;43.90;19.20;100563.00;;;;5043529;28;20041;-68
2022/04/22 05:00:11;;;;;;;5.30;3.73;;;20.10;43.90;19.20;100571.00;;;;5042954;28;20099;-68
2022/04/22 05:02:57;;;;;;;5.50;4.00;;;20.10;43.90;19.20;100578.00;;;;5025122;28;20298;-68
2022/04/22 05:05:43;;;;;;;5.18;4.32;;;20.00;43.90;19.20;100569.00;;;;5010997;28;20525;-68
2022/04/22 05:08:30;;;;;;;5.88;4.30;;;20.10;43.90;19.20;100572.00;;;;5035912;28;20045;-69
2022/04/22 05:11:16;;;;;;;4.85;4.05;;;20.10;44.00;19.20;100574.00;;;;5033489;28;20044;-69
2022/04/22 05:14:03;;;;;;;6.60;4.10;;;20.10;44.00;19.20;100572.00;;;;5042800;28;20497;-68
2022/04/22 05:16:49;;;;;;;6.60;4.25;;;20.10;43.90;19.20;100566.00;;;;5039354;28;20489;-68
2022/04/22 05:19:36;;;;;;;6.68;4.88;;;20.10;44.00;19.20;100563.00;;;;5037483;28;20048;-68
2022/04/22 05:22:22;;;;;;;5.75;4.03;;;20.00;43.90;19.20;100562.00;;;;5047464;28;20135;-69
2022/04/22 05:25:10;;;;;;;6.85;4.60;;;20.00;44.00;19.20;100557.00;;;;5043322;28;20356;-69
2022/04/22 05:27:56;;;;;;;;;;;20.10;44.70;19.20;100559.00;;;;5036263;28;20424;-68
2022/04/22 05:33:47;;;;;;;4.38;3.60;;;20.10;43.80;19.20;100555.00;;;;5038656;28;20069;-68
2022/04/22 05:36:33;;;;;;;6.50;3.72;;;20.10;43.90;19.20;100558.00;;;;5040718;28;20059;-68
2022/04/22 05:39:19;;;;;;;6.18;4.13;;;20.10;44.00;19.20;100554.00;;;;5040832;28;20040;-68
2022/04/22 05:42:05;;;;;;;7.03;4.25;;;20.00;44.00;19.20;100560.00;;;;5044705;28;21272;-68
2022/04/22 05:44:51;;;;;;;5.95;4.10;;;20.00;44.00;19.20;100548.00;;;;5034855;28;20067;-68
2022/04/22 05:47:37;;;;;;;5.90;3.65;;;20.00;44.00;19.20;100553.00;;;;5042055;28;20110;-69
2022/04/22 05:50:24;;;;;;;6.25;4.07;;;20.00;43.90;19.20;100563.00;;;;5029404;28;20417;-69
2022/04/22 05:53:11;;;;;;;7.90;4.77;;;20.00;44.00;19.20;100555.00;;;;5025795;28;20044;-69
2022/04/22 05:55:57;;;;;;;5.88;4.40;;;20.00;44.00;19.20;100551.00;;;;5043596;28;20119;-69
2022/04/22 05:58:43;;;;;;;6.40;4.32;;;20.00;44.10;19.10;100549.00;;;;5048036;28;20089;-69
2022/04/22 06:01:29;;;;;;;6.60;3.95;;;20.00;44.10;19.20;100552.00;;;;5035447;28;20364;-69
2022/04/22 06:04:15;;;;;;;6.00;4.05;;;20.00;44.20;19.20;100548.00;;;;5043747;28;20111;-69
2022/04/22 06:07:01;;;;;;;5.82;3.80;;;20.00;44.20;19.10;100551.00;;;;5034418;28;20041;-68
2022/04/22 06:12:52;;;;;;;7.25;3.58;;;20.00;44.30;19.10;100547.00;;;;5037696;28;20406;-68
2022/04/22 06:15:38;;;;;;;6.22;3.28;;;20.00;44.20;19.10;100551.00;;;;5037679;28;20545;-69
2022/04/22 06:18:26;;;;;;;5.85;3.65;;;20.00;44.20;19.10;100544.00;;;;5039405;28;20071;-68
2022/04/22 06:21:12;;;;;;;7.45;3.60;;;20.00;44.20;19.10;100549.00;;;;5040842;28;20108;-69
2022/04/22 06:23:58;;;;;;;5.47;3.15;;;19.90;44.20;19.10;100559.00;;;;5043716;28;20401;-68
2022/04/22 06:26:44;;;;;;;4.45;3.15;;;19.90;44.10;19.10;100552.00;;;;5034451;28;20041;-69
2022/04/22 06:29:30;;;;;;;8.40;3.08;;;19.90;44.10;19.10;100554.00;;;;5034760;28;20493;-68
2022/04/22 06:32:17;;;;;;;4.75;2.97;;;19.90;44.10;19.10;100553.00;;;;5042640;28;20087;-69
2022/04/22 06:35:04;;;;;;;4.55;2.72;;;19.90;44.10;19.10;100548.00;;;;5037084;28;20053;-68
2022/04/22 06:37:52;;;;;;;6.78;3.03;;;19.90;44.10;19.10;100544.00;;;;5008305;28;20474;-68
2022/04/22 06:46:47;;;;;;;2.90;2.42;;;19.90;44.10;19.10;100548.00;;;;5039622;28;20637;-68
2022/04/22 06:49:34;;;;;;;5.57;2.83;;;19.90;44.10;19.10;100542.00;;;;5034375;28;20069;-68
2022/04/22 06:52:20;;;;;;;5.97;3.17;;;19.90;44.20;19.10;100547.00;;;;5033332;28;20041;-69
2022/04/22 06:55:07;;;;;;;4.22;2.67;;;19.90;44.10;19.10;100552.00;;;;5043784;28;20571;-69
2022/04/22 06:57:53;;;;;;;4.00;2.43;;;19.90;44.10;19.10;100548.00;;;;5038874;28;20045;-69
2022/04/22 07:00:40;;;;;;;4.10;2.53;;;19.90;44.10;19.10;100547.00;;;;5009103;28;20037;-69
2022/04/22 07:03:26;;;;;;;3.80;2.53;;;19.90;44.00;19.10;100548.00;;;;5034850;28;20119;-69
2022/04/22 07:06:12;;;;;;;3.28;2.42;;;19.90;44.00;19.10;100558.00;;;;5025519;28;20442;-69
2022/04/22 07:08:58;;;;;;;3.83;2.03;;;19.90;44.00;19.10;100551.00;;;;5037070;28;20544;-68
2022/04/22 07:11:45;;;;;;;3.17;2.20;;;19.90;44.00;19.10;100558.00;;;;5031097;28;20045;-69
2022/04/22 07:14:31;;;;;;;6.80;3.33;;;19.90;44.00;19.10;100549.00;;;;5013761;28;20041;-69
2022/04/22 07:17:18;;;;;;;2.53;1.95;;;20.00;44.10;19.10;100544.00;;;;5009296;28;20040;-69
2022/04/22 07:20:13;;;;;;;3.42;2.03;;;19.90;44.00;19.10;100542.00;;;;5038019;28;20041;-69
2022/04/22 07:22:59;;;;;;;4.43;1.92;;;19.90;44.00;19.10;100539.00;;;;5023929;28;20033;-69
2022/04/22 07:25:48;;;;;;;2.90;2.28;;;19.90;44.00;19.10;100545.00;;;;5024675;28;20041;-69
2022/04/22 07:28:34;;;;;;;4.10;1.80;;;19.90;44.40;19.00;100540.00;;;;5033779;28;20108;-69
2022/04/22 07:31:20;;;;;;;3.92;1.92;;;19.90;44.00;19.00;100538.00;;;;5023472;28;20039;-69
2022/04/22 07:34:09;;;;;;;3.22;2.58;;;19.90;44.00;19.10;100542.00;;;;5019183;28;20308;-69
2022/04/22 07:36:56;;;;;;;2.63;2.00;;;19.90;44.00;19.00;100536.00;;;;5031717;28;20053;-69
2022/04/22 07:39:42;;;;;;;4.25;2.10;;;19.90;44.80;19.00;100543.00;;;;5034878;28;20045;-69
2022/04/22 07:42:29;;;;;;;2.67;2.00;;;19.90;44.00;19.10;100539.00;;;;5038988;28;20060;-69
2022/04/22 07:48:20;;;;;;;3.25;1.80;;;19.90;44.10;19.00;100533.00;;;;5043344;28;20037;-69
2022/04/22 07:51:06;;;;;;;7.97;1.70;;;19.90;43.90;19.00;100532.00;;;;5030622;28;20041;-69
2022/04/22 07:53:55;;;;;;;3.47;1.60;;;19.90;44.00;19.00;100525.00;;;;5041655;28;20577;-69
2022/04/22 07:56:41;;;;;;;3.88;1.92;;;19.90;44.00;19.00;100511.00;;;;5038349;28;20099;-69
2022/04/22 07:59:28;;;;;;;5.05;1.80;;;19.90;43.90;19.00;100512.00;;;;5046605;28;20490;-69
2022/04/22 08:02:14;;;;;;;3.90;1.95;;;19.90;43.90;19.00;100516.00;;;;5041286;28;20077;-69
2022/04/22 08:05:00;;;;;;;3.53;2.08;;;19.90;43.80;19.00;100520.00;;;;5040318;28;20072;-69
2022/04/22 08:07:46;;;;;;;4.35;1.90;;;19.90;43.80;19.00;100526.00;;;;5037816;28;20049;-69
2022/04/22 08:10:35;;;;;;;4.30;1.70;;;19.90;43.80;19.00;100527.00;;;;5027631;28;20034;-68
2022/04/22 08:13:25;;;;;;;2.35;1.83;;;19.90;43.80;19.00;100524.00;;;;5040619;28;20048;-68
2022/04/22 08:16:13;;;;;;;3.58;1.90;;;19.90;43.70;19.00;100522.00;;;;5025156;28;20065;-68
2022/04/22 08:19:00;;;;;;;4.25;1.80;;;19.90;43.70;19.00;100520.00;;;;4989399;28;20044;-69
2022/04/22 08:21:46;;;;;;;2.65;1.65;;;19.90;43.70;19.00;100512.00;;;;5033470;28;20052;-69
2022/04/22 08:24:32;;;;;;;2.45;1.58;;;19.90;43.70;19.00;100514.00;;;;5043150;28;20038;-69
2022/04/22 08:27:18;;;;;;;2.97;2.22;;;19.90;43.60;19.10;100517.00;;;;5040365;28;20080;-69
2022/04/22 08:30:06;;;;;;;3.40;1.60;;;19.90;43.60;19.10;100518.00;;;;5033787;28;20037;-69
2022/04/22 08:32:52;;;;;;;3.33;1.90;;;19.90;43.70;19.10;100529.00;;;;5039621;28;20103;-69
2022/04/22 08:35:38;;;;;;;2.28;1.98;;;19.80;43.50;19.10;100514.00;;;;5041239;28;20049;-69
2022/04/22 08:38:24;;;;;;;2.65;1.52;;;19.90;43.60;19.10;100522.00;;;;5016811;28;20086;-69
2022/04/22 08:41:10;;;;;;;2.25;1.63;;;19.90;43.50;19.10;100513.00;;;;5035612;28;20033;-69
2022/04/22 08:43:56;;;;;;;2.55;1.30;;;19.90;43.50;19.00;100504.00;;;;5044682;28;20048;-69
2022/04/22 08:49:58;;;;;;;2.47;1.40;;;19.90;43.50;19.10;100499.00;;;;5040504;28;20056;-69
2022/04/22 08:53:01;;;;;;;3.58;1.50;;;19.90;43.50;19.00;100497.00;;;;5028178;28;20464;-68
2022/04/22 08:55:49;;;;;;;3.25;1.73;;;19.90;43.50;19.00;100486.00;;;;5021362;28;20478;-68
2022/04/22 08:58:36;;;;;;;3.08;1.70;;;19.90;43.40;19.00;100488.00;;;;5027511;28;20052;-69
2022/04/22 09:01:22;;;;;;;3.00;1.70;;;19.90;43.40;19.10;100481.00;;;;5036806;28;20060;-69
2022/04/22 09:04:09;;;;;;;3.08;1.60;;;19.90;43.40;19.10;100491.00;;;;5034979;28;20084;-69
2022/04/22 09:06:56;;;;;;;1.90;1.40;;;19.90;43.40;19.10;100480.00;;;;5022508;28;20122;-69
2022/04/22 09:09:42;;;;;;;2.13;1.65;;;19.90;43.40;19.10;100483.00;;;;5013989;28;20317;-68
2022/04/22 09:12:28;;;;;;;1.77;1.55;;;19.90;43.50;19.10;100476.00;;;;5009215;28;20043;-69
2022/04/22 09:15:15;;;;;;;2.92;1.70;;;20.00;43.50;19.10;100473.00;;;;5021291;28;20564;-69
2022/04/22 09:18:14;;;;;;;2.58;1.50;;;20.00;43.50;19.10;100467.00;;;;5023688;28;20501;-69
2022/04/22 09:21:06;;;;;;;2.58;1.50;;;19.90;43.50;19.10;100465.00;;;;5021791;28;20044;-69
2022/04/22 09:23:53;;;;;;;2.75;1.60;;;20.00;43.50;19.10;100467.00;;;;5026925;28;20502;-69
2022/04/22 09:26:39;;;;;;;2.83;1.65;;;19.90;43.50;19.10;100461.00;;;;5017767;28;20052;-69
2022/04/22 09:29:25;;;;;;;4.50;1.80;;;20.00;43.50;19.10;100459.00;;;;5017106;28;20041;-68
2022/04/22 09:32:12;;;;;;;2.25;1.33;;;20.00;43.50;19.10;100459.00;;;;5041258;28;20044;-69
2022/04/22 09:35:08;;;;;;;2.20;1.38;;;20.00;43.50;19.10;100452.00;;;;5039274;28;20556;-69
2022/04/22 09:44:14;;;;;;;2.22;1.55;;;20.00;43.40;19.10;100451.00;;;;5009950;28;20044;-69
2022/04/22 09:47:12;;;;;;;2.65;1.52;;;20.00;43.40;19.10;100442.00;;;;5036527;28;20037;-68
2022/04/22 09:49:59;;;;;;;3.65;1.42;;;20.00;43.30;19.10;100442.00;;;;5045029;28;20134;-69
2022/04/22 09:52:47;;;;;;;2.60;1.83;;;20.00;43.30;19.10;100447.00;;;;5031104;28;20095;-69
2022/04/22 09:55:49;;;;;;;3.25;1.33;;;20.00;43.20;19.10;100433.00;;;;5019707;28;20199;-69
2022/04/22 09:58:35;;;;;;;3.72;1.83;;;20.00;43.20;19.10;100433.00;;;;5021150;28;20041;-69
2022/04/22 10:01:21;;;;;;;2.00;1.15;;;20.00;43.20;19.10;100430.00;;;;5012036;28;20124;-69
2022/04/22 10:04:07;;;;;;;2.75;1.73;;;19.90;43.20;19.10;100435.00;;;;5012476;28;20056;-69
2022/04/22 10:06:53;;;;;;;3.00;1.40;;;20.00;43.20;19.10;100428.00;;;;5032596;28;20498;-69
2022/04/22 10:09:39;;;;;;;2.47;1.58;;;20.00;43.20;19.10;100434.00;;;;5014245;28;20065;-69
2022/04/22 10:12:25;;;;;;;2.72;1.60;;;20.00;43.10;19.10;100427.00;;;;5037415;28;20045;-69
2022/04/22 10:15:11;;;;;;;2.72;1.55;;;20.00;43.10;19.10;100426.00;;;;5016386;28;20267;-69
2022/04/22 10:17:58;;;;;;;2.75;1.48;;;20.00;43.00;19.10;100421.00;;;;5020786;28;20049;-69
2022/04/22 10:20:44;;;;;;;2.05;1.27;;;20.00;42.90;19.10;100423.00;;;;5020175;28;20125;-69
2022/04/22 10:23:31;;;;;;;1.77;1.00;;;20.00;42.90;19.10;100434.00;;;;5012905;28;20064;-69
2022/04/22 10:26:17;;;;;;;2.60;1.25;;;20.10;42.80;19.10;100410.00;;;;4992465;28;20040;-69
2022/04/22 10:29:03;;;;;;;1.98;1.23;;;20.00;42.70;19.10;100412.00;;;;5009100;28;20041;-69
2022/04/22 10:31:49;;;;;;;2.15;1.40;;;20.10;42.70;19.10;100416.00;;;;5007554;28;20037;-69
2022/04/22 10:34:40;;;;;;;2.33;1.48;;;20.10;42.60;19.10;100413.00;;;;5012255;28;20034;-69
2022/04/22 10:37:27;;;;;;;2.22;1.27;;;20.10;42.40;19.10;100412.00;;;;5037105;28;20057;-69
2022/04/22 10:40:24;;;;;;;2.25;1.40;;;20.10;42.50;19.10;100416.00;;;;5035132;28;20056;-69
2022/04/22 10:43:10;;;;;;;2.17;1.20;;;20.10;42.30;19.10;100421.00;;;;5039600;28;20045;-69
2022/04/22 10:49:14;;;;;;;1.55;1.00;;;20.10;42.40;19.10;100415.00;;;;5018489;28;20426;-69
2022/04/22 10:52:10;;;;;;;1.38;0.80;;;20.10;42.40;19.10;100419.00;;;;5027434;28;20076;-69
2022/04/22 10:54:56;;;;;;;1.55;1.00;;;20.10;42.40;19.10;100412.00;;;;5010077;28;20051;-69
2022/04/22 10:57:44;;;;;;;1.13;0.90;;;20.10;42.30;19.10;100412.00;;;;5034615;28;20566;-70
2022/04/22 11:00:35;;;;;;;;;;;20.10;42.30;19.10;100411.00;;;;5032307;28;20041;-70
2022/04/22 11:03:29;;;;;;;2.03;1.02;;;20.10;42.40;19.10;100402.00;;;;5022546;28;19928;-71
2022/04/22 11:06:15;;;;;;;1.52;0.90;;;20.10;42.10;19.10;100395.00;;;;5038793;28;20372;-70
2022/04/22 11:09:02;;;;;;;2.35;0.88;;;20.20;42.20;19.10;100385.00;;;;4997597;28;20034;-70
2022/04/22 11:11:49;;;;;;;1.63;1.00;;;20.10;42.10;19.10;100386.00;;;;5031840;28;20052;-70
2022/04/22 11:14:44;;;;;;;2.00;0.90;;;20.10;42.10;19.10;100384.00;;;;5031205;28;20574;-71
2022/04/22 11:17:44;;;;;;;1.25;0.80;;;20.10;42.00;19.10;100385.00;;;;5023532;28;20119;-70
2022/04/22 11:21:04;;;;;;;2.45;0.90;;;20.10;42.00;19.10;100382.00;;;;5029369;28;20048;-70
2022/04/22 11:23:51;;;;;;;1.67;0.98;;;20.10;42.00;19.10;100368.00;;;;5036032;28;20042;-70
2022/04/22 11:26:37;;;;;;;1.73;0.90;;;20.20;42.10;19.10;100374.00;;;;5039351;28;20045;-70
2022/04/22 11:29:24;;;;;;;1.02;0.90;;;20.10;42.10;19.10;100373.00;;;;5041667;28;20036;-75
2022/04/22 11:32:20;;;;;;;2.17;1.30;;;20.20;42.10;19.20;100358.00;;;;5038630;28;20041;-71
2022/04/22 11:35:21;;;;;;;2.58;1.08;;;20.10;42.00;19.10;100357.00;;;;5025732;28;20582;-70
2022/04/22 11:38:07;;;;;;;3.00;1.38;;;20.20;41.90;19.20;100366.00;;;;5042842;28;20072;-70
2022/04/22 11:40:53;;;;;;;1.90;1.02;;;20.20;42.00;19.20;100368.00;;;;5040713;28;20471;-70
2022/04/22 11:43:39;;;;;;;3.78;1.35;;;20.20;42.00;19.20;100360.00;;;;5044959;28;20045;-70
2022/04/22 11:46:26;;;;;;;1.52;1.00;;;20.30;42.00;19.20;100363.00;;;;5036546;28;20089;-70
2022/04/22 11:49:12;;;;;;;2.40;1.13;;;20.20;42.00;19.20;100368.00;;;;5017280;28;20401;-71
2022/04/22 11:51:59;;;;;;;2.50;1.40;;;20.20;41.90;19.20;100367.00;;;;5046140;28;20040;-70
2022/04/22 11:54:46;;;;;;;1.55;1.10;;;20.20;42.00;19.20;100355.00;;;;5018848;28;20049;-71
2022/04/22 11:57:39;;;;;;;1.75;1.00;;;20.30;42.00;19.20;100361.00;;;;5045369;28;20052;-70
2022/04/22 12:06:43;;;;;;;2.28;1.27;;;20.30;42.00;19.20;100369.00;;;;5031733;28;20525;-70
2022/04/22 12:09:29;;;;;;;3.50;1.58;;;20.30;41.90;19.20;100364.00;;;;5033635;28;20042;-71
2022/04/22 12:12:15;;;;;;;3.50;1.50;;;20.20;42.00;19.20;100366.00;;;;5031455;28;20044;-72
2022/04/22 12:15:02;;;;;;;3.15;1.27;;;20.30;42.00;19.20;100368.00;;;;5023238;28;20064;-70
2022/04/22 12:17:48;;;;;;;1.60;1.50;;;20.30;42.10;19.20;100373.00;;;;5026924;28;20033;-70
2022/04/22 12:20:34;;;;;;;2.55;1.48;;;20.30;42.10;19.20;100356.00;;;;5027743;28;20037;-70
2022/04/22 12:23:21;;;;;;;2.47;1.27;;;20.30;42.20;19.20;100356.00;;;;5018629;28;20041;-70
2022/04/22 12:26:23;;;;;;;4.43;1.65;;;20.30;42.10;19.20;100341.00;;;;5042082;28;20554;-78
2022/04/22 12:29:25;;;;;;;3.00;1.80;;;20.30;42.10;19.20;100349.00;;;;5027370;28;20437;-71
2022/04/22 12:32:14;;;;;;;2.22;1.58;;;20.30;42.10;19.20;100339.00;;;;5040731;28;20036;-70
2022/04/22 12:35:17;;;;;;;2.88;1.67;;;20.30;42.10;19.20;100352.00;;;;5040201;28;20048;-71
2022/04/22 12:38:06;;;;;;;1.73;1.23;;;20.30;42.80;19.20;100339.00;;;;5046565;28;20032;-70
2022/04/22 12:40:52;;;;;;;3.20;1.67;;;20.30;42.00;19.20;100339.00;;;;5025226;28;20052;-71
2022/04/22 12:43:39;;;;;;;3.30;2.00;;;20.30;42.10;19.20;100343.00;;;;5045360;28;20053;-71
2022/04/22 12:52:52;;;;;;;3.47;2.30;;;20.30;42.10;19.20;100343.00;;;;5032148;28;20090;-71
2022/04/22 12:55:38;;;;;;;3.33;2.08;;;20.30;42.10;19.20;100346.00;;;;5037791;28;20478;-71
2022/04/22 12:58:24;;;;;;;3.83;1.98;;;20.30;42.10;19.20;100337.00;;;;5048556;28;20037;-71
2022/04/22 13:01:21;;;;;;;6.18;2.13;;;20.30;42.20;19.20;100337.00;;;;5037470;28;20490;-71
2022/04/22 13:04:18;;;;;;;6.93;1.90;;;20.20;42.20;19.20;100334.00;;;;5042579;28;20152;-71
2022/04/22 13:07:10;;;;;;;2.10;1.90;;;20.30;42.20;19.20;100324.00;;;;5040274;28;20058;-71
2022/04/22 13:09:56;;;;;;;3.42;1.70;;;20.30;42.10;19.20;100320.00;;;;5036606;28;20095;-71
2022/04/22 13:12:43;;;;;;;2.83;1.92;;;20.30;42.20;19.30;100332.00;;;;5043321;28;20045;-71
2022/04/22 13:15:31;;;;;;;2.20;1.88;;;20.20;42.20;19.30;100330.00;;;;5034479;28;20603;-71
2022/04/22 13:18:20;;;;;;;2.35;1.77;;;20.30;42.20;19.20;100332.00;;;;5042421;28;20059;-75
2022/04/22 13:21:06;;;;;;;2.58;1.65;;;20.30;42.30;19.30;100333.00;;;;5038568;28;20143;-72